Time;durP1;ratioP1;P1;durP2;ratioP2;P2;SDS_P1;SDS_P2;PMS_P1;PMS_P2;Temp;Humidity;BMP_temperature;BMP_pressure;BME280_temperature;BME280_humidity;BME280_pressure;Samples;Min_cycle;Max_cycle;Signal;HPM_P1;HPM_P2
2022/06/27 00:01:49;;;;;;;3.75;2.55;;;;;;;;;;4402822;32;20545;-58
2022/06/27 00:04:14;;;;;;;5.75;2.53;;;;;;;;;;4402640;32;20612;-58
2022/06/27 00:06:40;;;;;;;3.80;2.08;;;;;;;;;;4402146;32;20700;-58
2022/06/27 00:09:06;;;;;;;3.92;2.17;;;;;;;;;;4413825;32;20672;-58
2022/06/27 00:11:31;;;;;;;5.22;2.05;;;;;;;;;;4402051;32;20685;-59
2022/06/27 00:13:57;;;;;;;3.42;2.20;;;;;;;;;;4402573;32;20205;-59
2022/06/27 00:16:22;;;;;;;5.43;2.60;;;;;;;;;;4402252;32;20230;-59
2022/06/27 00:18:48;;;;;;;2.58;2.25;;;;;;;;;;4402352;32;20228;-58
2022/06/27 00:21:13;;;;;;;2.87;2.42;;;;;;;;;;4402313;32;20221;-59
2022/06/27 00:23:40;;;;;;;4.37;2.15;;;;;;;;;;4402407;32;20205;-59
2022/06/27 00:26:06;;;;;;;3.30;2.42;;;;;;;;;;4401998;32;20316;-58
2022/06/27 00:28:31;;;;;;;9.50;2.42;;;;;;;;;;4402427;32;20308;-59
2022/06/27 00:30:57;;;;;;;11.75;2.35;;;;;;;;;;4404773;32;20224;-59
2022/06/27 00:33:22;;;;;;;4.43;2.60;;;;;;;;;;4405299;32;20197;-60
2022/06/27 00:35:49;;;;;;;3.35;2.03;;;;;;;;;;4405081;32;20214;-60
2022/06/27 00:38:15;;;;;;;5.78;2.70;;;;;;;;;;4404716;32;20221;-59
2022/06/27 00:40:41;;;;;;;13.52;3.10;;;;;;;;;;4404827;32;20304;-59
2022/06/27 00:43:07;;;;;;;4.72;2.60;;;;;;;;;;4404962;32;20278;-59
2022/06/27 00:45:32;;;;;;;5.68;2.80;;;;;;;;;;4405047;32;20198;-58
2022/06/27 00:47:58;;;;;;;3.37;2.85;;;;;;;;;;4405248;32;20228;-59
2022/06/27 00:50:23;;;;;;;3.97;1.98;;;;;;;;;;4399938;32;20210;-59
2022/06/27 00:52:49;;;;;;;3.45;2.40;;;;;;;;;;4389304;32;20218;-58
2022/06/27 00:55:15;;;;;;;4.80;2.65;;;;;;;;;;4389505;32;20572;-59
2022/06/27 00:57:41;;;;;;;8.57;2.83;;;;;;;;;;4389905;32;20445;-59
2022/06/27 01:00:07;;;;;;;8.07;3.08;;;;;;;;;;4389648;32;20271;-59
2022/06/27 01:02:33;;;;;;;5.62;2.33;;;;;;;;;;4389711;32;20337;-59
2022/06/27 01:04:58;;;;;;;9.88;2.75;;;;;;;;;;4391424;32;20307;-58
2022/06/27 01:07:24;;;;;;;6.03;2.40;;;;;;;;;;4404865;32;20213;-59
2022/06/27 01:09:50;;;;;;;4.15;2.85;;;;;;;;;;4404624;32;20206;-59
2022/06/27 01:12:15;;;;;;;9.20;2.53;;;;;;;;;;4404692;32;20287;-59
2022/06/27 01:14:41;;;;;;;5.65;3.62;;;;;;;;;;4404741;32;20295;-60
2022/06/27 01:17:06;;;;;;;6.85;3.25;;;;;;;;;;4404566;32;20340;-59
2022/06/27 01:19:33;;;;;;;5.75;3.08;;;;;;;;;;4404703;32;20270;-58
2022/06/27 01:21:59;;;;;;;6.30;3.47;;;;;;;;;;4403184;32;20233;-58
2022/06/27 01:24:26;;;;;;;6.37;3.40;;;;;;;;;;4404474;32;20238;-58
2022/06/27 01:26:52;;;;;;;9.10;3.58;;;;;;;;;;4404154;32;20412;-59
2022/06/27 01:29:19;;;;;;;9.15;2.83;;;;;;;;;;4404310;32;20629;-59
2022/06/27 01:31:45;;;;;;;11.12;3.28;;;;;;;;;;4404268;32;20217;-58
2022/06/27 01:34:11;;;;;;;7.35;3.03;;;;;;;;;;4404523;32;20281;-59
2022/06/27 01:36:43;;;;;;;3.30;2.55;;;;;;;;;;4402611;32;20678;-59
2022/06/27 01:39:12;;;;;;;5.68;2.42;;;;;;;;;;4403994;32;20189;-59
2022/06/27 01:41:47;;;;;;;5.00;2.87;;;;;;;;;;4403241;32;20225;-59
2022/06/27 01:44:13;;;;;;;6.53;2.60;;;;;;;;;;4404376;32;20185;-59
2022/06/27 01:46:41;;;;;;;9.60;2.97;;;;;;;;;;4399401;32;20591;-59
2022/06/27 01:49:06;;;;;;;3.22;2.25;;;;;;;;;;4389555;32;20232;-59
2022/06/27 01:51:32;;;;;;;5.68;2.87;;;;;;;;;;4387714;32;20225;-60
2022/06/27 01:53:57;;;;;;;5.05;2.55;;;;;;;;;;4389128;32;20269;-59
2022/06/27 01:56:23;;;;;;;6.82;2.60;;;;;;;;;;4387359;32;20225;-59
2022/06/27 01:58:49;;;;;;;6.05;2.72;;;;;;;;;;4388847;32;20236;-59
2022/06/27 02:01:14;;;;;;;6.10;2.12;;;;;;;;;;4388808;32;20291;-59
2022/06/27 02:03:40;;;;;;;7.85;3.15;;;;;;;;;;4387756;32;20221;-59
2022/06/27 02:06:05;;;;;;;6.50;2.75;;;;;;;;;;4388384;32;20713;-60
2022/06/27 02:08:32;;;;;;;10.27;2.45;;;;;;;;;;4388639;32;20715;-60
2022/06/27 02:10:57;;;;;;;6.85;2.72;;;;;;;;;;4387208;32;20244;-59
2022/06/27 02:13:23;;;;;;;4.12;2.60;;;;;;;;;;4400190;32;20250;-59
2022/06/27 02:16:03;;;;;;;6.05;2.65;;;;;;;;;;4388562;32;20210;-59
2022/06/27 02:18:29;;;;;;;6.00;3.45;;;;;;;;;;4388390;32;20320;-59
2022/06/27 02:20:55;;;;;;;4.57;2.85;;;;;;;;;;4388251;32;20205;-58
2022/06/27 02:23:21;;;;;;;7.93;3.15;;;;;;;;;;4388489;32;20775;-59
2022/06/27 02:25:47;;;;;;;7.12;3.15;;;;;;;;;;4388217;32;20629;-58
2022/06/27 02:28:13;;;;;;;8.73;2.87;;;;;;;;;;4387936;32;20260;-58
2022/06/27 02:30:39;;;;;;;4.85;2.92;;;;;;;;;;4392299;32;20213;-58
2022/06/27 02:33:04;;;;;;;6.30;3.00;;;;;;;;;;4404033;32;20294;-59
2022/06/27 02:35:31;;;;;;;2.78;2.05;;;;;;;;;;4403546;32;20232;-59
2022/06/27 02:37:58;;;;;;;12.98;3.50;;;;;;;;;;4403597;32;20237;-59
2022/06/27 02:40:24;;;;;;;5.78;3.30;;;;;;;;;;4403075;32;20258;-59
2022/06/27 02:42:54;;;;;;;5.25;2.78;;;;;;;;;;4399058;32;20283;-58
2022/06/27 02:45:19;;;;;;;3.40;2.33;;;;;;;;;;4388399;32;20347;-60
2022/06/27 02:47:47;;;;;;;12.88;2.85;;;;;;;;;;4387374;32;20599;-58
2022/06/27 02:50:13;;;;;;;7.05;2.50;;;;;;;;;;4388371;32;20546;-58
2022/06/27 02:52:42;;;;;;;3.87;2.53;;;;;;;;;;4388202;32;20229;-58
2022/06/27 02:55:17;;;;;;;11.95;3.53;;;;;;;;;;4387975;32;20570;-59
2022/06/27 02:57:45;;;;;;;8.02;3.25;;;;;;;;;;4388388;32;20308;-59
2022/06/27 03:00:12;;;;;;;3.37;2.90;;;;;;;;;;4387876;32;20205;-59
2022/06/27 03:02:40;;;;;;;4.47;3.25;;;;;;;;;;4388097;32;20252;-59
2022/06/27 03:05:06;;;;;;;7.78;3.42;;;;;;;;;;4390404;32;20210;-59
2022/06/27 03:07:43;;;;;;;9.20;3.60;;;;;;;;;;4403404;32;20296;-59
2022/06/27 03:10:09;;;;;;;7.05;3.90;;;;;;;;;;4403051;32;20200;-60
2022/06/27 03:12:35;;;;;;;10.93;3.90;;;;;;;;;;4403159;32;20217;-59
2022/06/27 03:15:01;;;;;;;6.25;3.58;;;;;;;;;;4403179;32;20673;-60
2022/06/27 03:17:26;;;;;;;4.18;2.92;;;;;;;;;;4402641;32;20225;-59
2022/06/27 03:19:52;;;;;;;4.37;3.55;;;;;;;;;;4402613;32;20239;-58
2022/06/27 03:22:18;;;;;;;7.30;2.95;;;;;;;;;;4402878;32;20306;-59
2022/06/27 03:24:44;;;;;;;5.12;3.53;;;;;;;;;;4402776;32;20272;-59
2022/06/27 03:27:10;;;;;;;11.45;4.12;;;;;;;;;;4403100;32;20368;-58
2022/06/27 03:29:38;;;;;;;11.38;3.28;;;;;;;;;;4402722;32;20511;-58
2022/06/27 03:32:05;;;;;;;5.22;2.92;;;;;;;;;;4402588;32;20638;-59
2022/06/27 03:34:30;;;;;;;8.15;3.17;;;;;;;;;;4402378;32;20308;-59
2022/06/27 03:36:56;;;;;;;3.50;2.95;;;;;;;;;;4402481;32;20263;-59
2022/06/27 03:39:22;;;;;;;8.95;3.55;;;;;;;;;;4402046;32;20254;-59
2022/06/27 03:41:48;;;;;;;11.68;3.65;;;;;;;;;;4401404;32;20222;-59
2022/06/27 03:44:14;;;;;;;7.32;3.40;;;;;;;;;;4402525;32;20275;-58
2022/06/27 03:46:39;;;;;;;7.45;2.62;;;;;;;;;;4402424;32;20264;-59
2022/06/27 03:51:49;;;;;;;10.27;3.15;;;;;;;;;;4402417;32;20282;-59
2022/06/27 03:54:15;;;;;;;3.28;2.97;;;;;;;;;;4401967;32;20217;-59
2022/06/27 03:56:40;;;;;;;6.37;3.47;;;;;;;;;;4402332;32;20217;-59
2022/06/27 03:59:06;;;;;;;5.85;3.40;;;;;;;;;;4402538;32;20609;-59
2022/06/27 04:01:31;;;;;;;10.48;3.67;;;;;;;;;;4402667;32;20272;-58
2022/06/27 04:03:57;;;;;;;9.40;3.47;;;;;;;;;;4402913;32;20264;-58
2022/06/27 04:06:22;;;;;;;9.05;3.47;;;;;;;;;;4405025;32;20243;-59
2022/06/27 04:08:48;;;;;;;7.43;3.33;;;;;;;;;;4403816;32;20233;-59
2022/06/27 04:11:13;;;;;;;11.68;2.92;;;;;;;;;;4405079;32;20554;-59
2022/06/27 04:13:39;;;;;;;5.85;4.03;;;;;;;;;;4416861;32;20650;-59
2022/06/27 04:16:05;;;;;;;9.30;3.45;;;;;;;;;;4405237;32;20209;-59
2022/06/27 04:18:31;;;;;;;3.47;3.12;;;;;;;;;;4405014;32;20221;-59
2022/06/27 04:20:56;;;;;;;5.22;3.55;;;;;;;;;;4405197;32;20193;-59
2022/06/27 04:23:22;;;;;;;7.03;4.07;;;;;;;;;;4405181;32;20193;-59
2022/06/27 04:25:47;;;;;;;12.50;3.03;;;;;;;;;;4405151;32;20201;-58
2022/06/27 04:28:13;;;;;;;6.07;3.20;;;;;;;;;;4405198;32;20221;-59
2022/06/27 04:30:40;;;;;;;13.50;4.35;;;;;;;;;;4405103;32;20230;-59
2022/06/27 04:33:07;;;;;;;9.35;3.78;;;;;;;;;;4405216;32;20237;-59
2022/06/27 04:35:32;;;;;;;6.47;3.40;;;;;;;;;;4399217;32;20363;-59
2022/06/27 04:37:58;;;;;;;4.82;3.35;;;;;;;;;;4401523;32;20554;-58
2022/06/27 04:40:25;;;;;;;8.60;4.18;;;;;;;;;;4404970;32;20206;-58
2022/06/27 04:42:50;;;;;;;9.25;3.45;;;;;;;;;;4405317;32;20641;-59
2022/06/27 04:45:18;;;;;;;6.97;3.72;;;;;;;;;;4405193;32;20377;-59
2022/06/27 04:47:44;;;;;;;8.57;4.28;;;;;;;;;;4405270;32;20229;-59
2022/06/27 04:50:12;;;;;;;6.35;4.20;;;;;;;;;;4404968;32;20226;-58
2022/06/27 04:52:38;;;;;;;8.40;3.58;;;;;;;;;;4404963;32;20330;-59
2022/06/27 04:55:07;;;;;;;6.40;3.67;;;;;;;;;;4404497;32;20251;-59
2022/06/27 04:57:34;;;;;;;8.88;3.00;;;;;;;;;;4404352;32;20277;-59
2022/06/27 05:00:00;;;;;;;8.32;3.87;;;;;;;;;;4403439;32;20687;-59
2022/06/27 05:02:25;;;;;;;6.72;3.37;;;;;;;;;;4404437;32;20213;-59
2022/06/27 05:04:51;;;;;;;8.10;4.53;;;;;;;;;;4403214;32;20368;-59
2022/06/27 05:07:16;;;;;;;5.78;3.97;;;;;;;;;;4389596;32;20221;-59
2022/06/27 05:09:42;;;;;;;8.23;3.85;;;;;;;;;;4389028;32;20259;-59
2022/06/27 05:12:08;;;;;;;9.93;3.83;;;;;;;;;;4389714;32;20222;-59
2022/06/27 05:14:33;;;;;;;5.47;3.90;;;;;;;;;;4389233;32;20213;-58
2022/06/27 05:16:59;;;;;;;7.40;3.72;;;;;;;;;;4389567;32;20222;-59
2022/06/27 05:19:24;;;;;;;9.98;3.97;;;;;;;;;;4388120;32;20273;-58
2022/06/27 05:21:50;;;;;;;6.80;4.05;;;;;;;;;;4389356;32;20291;-58
2022/06/27 05:24:17;;;;;;;5.85;4.07;;;;;;;;;;4388872;32;20641;-59
2022/06/27 05:26:43;;;;;;;7.20;4.22;;;;;;;;;;4389071;32;20241;-59
2022/06/27 05:29:09;;;;;;;6.78;3.75;;;;;;;;;;4388939;32;20209;-59
2022/06/27 05:31:35;;;;;;;9.48;3.87;;;;;;;;;;4394392;32;20312;-59
2022/06/27 05:34:01;;;;;;;19.17;4.00;;;;;;;;;;4388597;32;20806;-59
2022/06/27 05:36:26;;;;;;;7.00;3.90;;;;;;;;;;4390359;32;20230;-58
2022/06/27 05:38:52;;;;;;;11.32;4.28;;;;;;;;;;4402799;32;20247;-58
2022/06/27 05:41:18;;;;;;;6.53;3.97;;;;;;;;;;4403849;32;20217;-59
2022/06/27 05:43:43;;;;;;;7.12;5.03;;;;;;;;;;4402628;32;20242;-59
2022/06/27 05:46:09;;;;;;;6.03;3.62;;;;;;;;;;4403964;32;20228;-58
2022/06/27 05:48:34;;;;;;;9.63;3.62;;;;;;;;;;4402567;32;20633;-59
2022/06/27 05:51:00;;;;;;;10.35;4.12;;;;;;;;;;4404010;32;20236;-58
2022/06/27 05:53:28;;;;;;;6.25;3.20;;;;;;;;;;4403309;32;20566;-58
2022/06/27 05:55:54;;;;;;;8.02;4.22;;;;;;;;;;4403781;32;20194;-58
2022/06/27 05:58:19;;;;;;;12.60;4.07;;;;;;;;;;4403981;32;20202;-59
2022/06/27 06:00:45;;;;;;;8.02;4.43;;;;;;;;;;4404167;32;20594;-59
2022/06/27 06:03:11;;;;;;;3.87;3.22;;;;;;;;;;4403460;32;20625;-59
2022/06/27 06:05:36;;;;;;;4.12;3.67;;;;;;;;;;4397245;32;20214;-59
2022/06/27 06:08:04;;;;;;;7.60;4.20;;;;;;;;;;4388235;32;20361;-58
2022/06/27 06:10:31;;;;;;;7.70;4.00;;;;;;;;;;4387825;32;20217;-58
2022/06/27 06:12:58;;;;;;;6.18;4.10;;;;;;;;;;4388169;32;20626;-59
2022/06/27 06:15:24;;;;;;;8.50;4.03;;;;;;;;;;4387556;32;20206;-59
2022/06/27 06:17:49;;;;;;;4.05;3.55;;;;;;;;;;4399849;32;20566;-59
2022/06/27 06:20:15;;;;;;;13.30;4.15;;;;;;;;;;4387806;32;20206;-59
2022/06/27 06:22:41;;;;;;;8.73;4.60;;;;;;;;;;4387994;32;20497;-59
2022/06/27 06:25:07;;;;;;;7.65;3.75;;;;;;;;;;4388313;32;20201;-59
2022/06/27 06:27:35;;;;;;;7.53;3.80;;;;;;;;;;4389702;32;20264;-59
2022/06/27 06:30:02;;;;;;;6.03;4.22;;;;;;;;;;4403123;32;20217;-59
2022/06/27 06:32:29;;;;;;;7.95;3.40;;;;;;;;;;4401688;32;20546;-59
2022/06/27 06:34:55;;;;;;;7.28;4.00;;;;;;;;;;4403365;32;20300;-59
2022/06/27 06:37:21;;;;;;;9.05;4.28;;;;;;;;;;4401890;32;20794;-58
2022/06/27 06:39:46;;;;;;;5.60;4.30;;;;;;;;;;4403139;32;20237;-58
2022/06/27 06:42:12;;;;;;;9.88;4.18;;;;;;;;;;4402324;32;20542;-59
2022/06/27 06:44:38;;;;;;;7.90;3.47;;;;;;;;;;4402875;32;20304;-59
2022/06/27 06:47:04;;;;;;;8.40;4.03;;;;;;;;;;4403386;32;20237;-59
2022/06/27 06:49:30;;;;;;;6.90;4.68;;;;;;;;;;4402714;32;20213;-58
2022/06/27 06:51:56;;;;;;;11.95;4.87;;;;;;;;;;4401462;32;20286;-59
2022/06/27 06:54:22;;;;;;;7.87;3.85;;;;;;;;;;4401669;32;20368;-58
2022/06/27 06:56:49;;;;;;;6.07;3.67;;;;;;;;;;4403292;32;20313;-58
2022/06/27 06:59:16;;;;;;;9.18;4.20;;;;;;;;;;4403533;32;20231;-59
2022/06/27 07:01:43;;;;;;;6.22;4.47;;;;;;;;;;4402959;32;20357;-58
2022/06/27 07:04:11;;;;;;;4.80;4.25;;;;;;;;;;4402696;32;20320;-58
2022/06/27 07:06:38;;;;;;;8.18;4.15;;;;;;;;;;4390351;32;20245;-58
2022/06/27 07:09:04;;;;;;;10.60;4.25;;;;;;;;;;4387029;32;20214;-57
2022/06/27 07:11:36;;;;;;;6.93;4.40;;;;;;;;;;4387696;32;20257;-57
2022/06/27 07:14:02;;;;;;;7.07;3.47;;;;;;;;;;4397689;32;20402;-58
2022/06/27 07:16:27;;;;;;;4.03;3.50;;;;;;;;;;4386972;32;20230;-58
2022/06/27 07:18:54;;;;;;;5.95;4.07;;;;;;;;;;4387348;32;20644;-58
2022/06/27 07:21:20;;;;;;;3.50;3.17;;;;;;;;;;4398458;32;20224;-59
2022/06/27 07:23:48;;;;;;;5.62;3.92;;;;;;;;;;4386957;32;20370;-58
2022/06/27 07:26:16;;;;;;;9.05;3.72;;;;;;;;;;4387331;32;20226;-58
2022/06/27 07:28:42;;;;;;;6.50;3.62;;;;;;;;;;4387418;32;20334;-58
2022/06/27 07:31:09;;;;;;;9.23;4.22;;;;;;;;;;4394372;32;20213;-58
2022/06/27 07:33:39;;;;;;;9.15;3.70;;;;;;;;;;4401273;32;20683;-58
2022/06/27 07:36:06;;;;;;;5.35;3.53;;;;;;;;;;4402615;32;20229;-58
2022/06/27 07:38:38;;;;;;;5.28;3.40;;;;;;;;;;4401978;32;20384;-58
2022/06/27 07:41:05;;;;;;;5.05;3.83;;;;;;;;;;4404165;32;20181;-59
2022/06/27 07:43:31;;;;;;;3.90;3.03;;;;;;;;;;4403577;32;20201;-58
2022/06/27 07:45:57;;;;;;;7.15;3.37;;;;;;;;;;4404211;32;20266;-56
2022/06/27 07:48:22;;;;;;;7.25;2.65;;;;;;;;;;4403850;32;20221;-57
2022/06/27 07:50:48;;;;;;;4.12;2.83;;;;;;;;;;4404103;32;20243;-57
2022/06/27 07:53:15;;;;;;;4.20;3.10;;;;;;;;;;4404934;32;20229;-59
2022/06/27 07:55:52;;;;;;;3.85;2.62;;;;;;;;;;4407131;32;20210;-58
2022/06/27 07:58:26;;;;;;;4.68;2.90;;;;;;;;;;4403766;32;20216;-59
2022/06/27 08:00:52;;;;;;;5.45;3.62;;;;;;;;;;4404752;32;20272;-58
2022/06/27 08:06:05;;;;;;;6.93;3.42;;;;;;;;;;4405664;32;20213;-58
2022/06/27 08:08:33;;;;;;;7.32;3.42;;;;;;;;;;4405179;32;20292;-59
2022/06/27 08:10:59;;;;;;;7.50;3.10;;;;;;;;;;4405691;32;21090;-59
2022/06/27 08:13:26;;;;;;;4.60;2.47;;;;;;;;;;4405931;32;20189;-59
2022/06/27 08:15:53;;;;;;;9.88;3.42;;;;;;;;;;4405716;32;20276;-59
2022/06/27 08:18:19;;;;;;;3.87;2.60;;;;;;;;;;4405757;32;20277;-59
2022/06/27 08:20:48;;;;;;;4.78;2.95;;;;;;;;;;4405519;32;20193;-59
2022/06/27 08:23:15;;;;;;;5.07;2.70;;;;;;;;;;4404972;32;20222;-60
2022/06/27 08:25:41;;;;;;;8.32;3.62;;;;;;;;;;4404748;32;20202;-58
2022/06/27 08:28:09;;;;;;;4.93;3.05;;;;;;;;;;4404938;32;20217;-58
2022/06/27 08:30:36;;;;;;;3.50;2.97;;;;;;;;;;4402460;32;20239;-58
2022/06/27 08:33:02;;;;;;;9.25;3.20;;;;;;;;;;4403900;32;20284;-59
2022/06/27 08:35:28;;;;;;;4.90;2.72;;;;;;;;;;4403971;32;20193;-59
2022/06/27 08:37:54;;;;;;;4.50;2.55;;;;;;;;;;4404755;32;20209;-59
2022/06/27 08:40:20;;;;;;;3.50;2.22;;;;;;;;;;4405258;32;20574;-58
2022/06/27 08:42:47;;;;;;;4.93;3.35;;;;;;;;;;4404784;32;20251;-58
2022/06/27 08:45:15;;;;;;;4.45;2.50;;;;;;;;;;4403624;32;20719;-58
2022/06/27 08:47:41;;;;;;;3.03;2.30;;;;;;;;;;4403893;32;20233;-59
2022/06/27 08:50:11;;;;;;;7.05;2.45;;;;;;;;;;4404713;32;20217;-58
2022/06/27 08:52:40;;;;;;;3.85;2.40;;;;;;;;;;4403338;32;20725;-58
2022/06/27 08:55:08;;;;;;;2.60;2.37;;;;;;;;;;4404873;32;20238;-58
2022/06/27 08:57:39;;;;;;;5.03;2.97;;;;;;;;;;4404179;32;20225;-59
2022/06/27 09:00:09;;;;;;;4.32;2.60;;;;;;;;;;4403096;32;20245;-58
2022/06/27 09:02:42;;;;;;;3.03;2.10;;;;;;;;;;4404240;32;20638;-58
2022/06/27 09:05:15;;;;;;;3.60;2.42;;;;;;;;;;4403171;32;20246;-58
2022/06/27 09:08:02;;;;;;;6.55;2.67;;;;;;;;;;4402702;32;20237;-59
2022/06/27 09:10:42;;;;;;;8.25;3.10;;;;;;;;;;4404217;32;20295;-58
2022/06/27 09:13:15;;;;;;;4.25;2.50;;;;;;;;;;4390275;32;20245;-58
2022/06/27 09:15:59;;;;;;;4.22;2.60;;;;;;;;;;4392659;32;20875;-59
2022/06/27 09:18:30;;;;;;;7.60;3.53;;;;;;;;;;4404711;32;20545;-59
2022/06/27 09:21:11;;;;;;;9.23;2.97;;;;;;;;;;4404234;32;20182;-59
2022/06/27 09:23:53;;;;;;;4.90;2.47;;;;;;;;;;4402262;32;20690;-59
2022/06/27 09:26:25;;;;;;;3.35;2.40;;;;;;;;;;4403519;32;20804;-60
2022/06/27 09:29:00;;;;;;;6.60;2.42;;;;;;;;;;4404421;32;20213;-60
2022/06/27 09:31:25;;;;;;;4.68;2.35;;;;;;;;;;4404487;32;20313;-59
2022/06/27 09:34:12;;;;;;;4.43;2.33;;;;;;;;;;4403822;32;20315;-59
2022/06/27 09:36:50;;;;;;;3.65;2.20;;;;;;;;;;4401116;32;20230;-59
2022/06/27 09:39:19;;;;;;;3.50;2.05;;;;;;;;;;4404173;32;20229;-58
2022/06/27 09:41:54;;;;;;;3.67;1.87;;;;;;;;;;4402722;32;20729;-58
2022/06/27 09:44:22;;;;;;;2.37;2.03;;;;;;;;;;4404374;32;20288;-59
2022/06/27 09:46:58;;;;;;;1.75;1.65;;;;;;;;;;4403600;32;20350;-58
2022/06/27 09:49:27;;;;;;;3.37;2.30;;;;;;;;;;4404159;32;20476;-59
2022/06/27 09:51:53;;;;;;;3.42;1.58;;;;;;;;;;4403934;32;20239;-58
2022/06/27 09:54:22;;;;;;;4.50;2.62;;;;;;;;;;4391649;32;20289;-59
2022/06/27 09:56:50;;;;;;;3.58;1.70;;;;;;;;;;4387091;32;20359;-58
2022/06/27 09:59:16;;;;;;;3.72;2.33;;;;;;;;;;4391585;32;20205;-59
2022/06/27 10:01:43;;;;;;;2.37;1.75;;;;;;;;;;4403112;32;20345;-60
2022/06/27 10:04:10;;;;;;;6.10;1.50;;;;;;;;;;4403510;32;20212;-58
2022/06/27 10:06:39;;;;;;;3.55;2.47;;;;;;;;;;4403246;32;20237;-59
2022/06/27 10:09:08;;;;;;;4.75;1.83;;;;;;;;;;4403548;32;20713;-59
2022/06/27 10:11:35;;;;;;;3.83;2.45;;;;;;;;;;4403315;32;20259;-59
2022/06/27 10:14:13;;;;;;;3.62;1.98;;;;;;;;;;4402071;32;20209;-59
2022/06/27 10:16:56;;;;;;;6.45;1.80;;;;;;;;;;4402523;32;20642;-59
2022/06/27 10:19:27;;;;;;;2.12;1.48;;;;;;;;;;4403887;32;20280;-59
2022/06/27 10:21:53;;;;;;;3.53;1.75;;;;;;;;;;4402783;32;20658;-59
2022/06/27 10:24:18;;;;;;;5.35;2.08;;;;;;;;;;4403190;32;20260;-60
2022/06/27 10:26:45;;;;;;;4.85;2.12;;;;;;;;;;4402962;32;20666;-58
2022/06/27 10:29:33;;;;;;;8.13;1.83;;;;;;;;;;4403111;32;20695;-59
2022/06/27 10:32:00;;;;;;;3.30;1.90;;;;;;;;;;4402926;32;20213;-59
2022/06/27 10:34:38;;;;;;;8.88;1.98;;;;;;;;;;4403338;32;20197;-58
2022/06/27 10:37:24;;;;;;;5.47;1.80;;;;;;;;;;4402601;32;20238;-57
2022/06/27 10:40:18;;;;;;;4.03;1.50;;;;;;;;;;4402658;32;20205;-57
2022/06/27 10:42:44;;;;;;;7.20;1.60;;;;;;;;;;4403123;32;20217;-58
2022/06/27 10:45:23;;;;;;;3.15;1.67;;;;;;;;;;4402800;32;20249;-58
2022/06/27 10:47:57;;;;;;;5.37;1.67;;;;;;;;;;4401953;32;20229;-58
2022/06/27 10:50:26;;;;;;;7.50;1.70;;;;;;;;;;4402387;32;20221;-58
2022/06/27 10:53:24;;;;;;;4.18;1.55;;;;;;;;;;4402895;32;20245;-59
2022/06/27 10:55:50;;;;;;;3.62;1.50;;;;;;;;;;4402568;32;20198;-59
2022/06/27 10:58:29;;;;;;;4.47;2.50;;;;;;;;;;4389187;32;20202;-59
2022/06/27 11:01:13;;;;;;;3.58;1.85;;;;;;;;;;4387201;32;20185;-59
2022/06/27 11:03:39;;;;;;;5.07;1.87;;;;;;;;;;4386900;32;20577;-59
2022/06/27 11:06:06;;;;;;;1.90;1.60;;;;;;;;;;4388386;32;20546;-58
2022/06/27 11:08:34;;;;;;;9.45;2.30;;;;;;;;;;4402605;32;20270;-59
2022/06/27 11:11:00;;;;;;;8.77;1.87;;;;;;;;;;4402333;32;20496;-59
2022/06/27 11:13:37;;;;;;;2.12;1.80;;;;;;;;;;4402432;32;20209;-58
2022/06/27 11:16:04;;;;;;;3.08;1.70;;;;;;;;;;4400851;32;20209;-58
2022/06/27 11:18:46;;;;;;;2.12;1.70;;;;;;;;;;4402453;32;20492;-58
2022/06/27 11:21:14;;;;;;;2.25;1.67;;;;;;;;;;4402324;32;20244;-58
2022/06/27 11:23:53;;;;;;;3.03;2.03;;;;;;;;;;4402397;32;20225;-59
2022/06/27 11:26:20;;;;;;;10.25;2.00;;;;;;;;;;4402537;32;20221;-59
2022/06/27 11:34:15;;;;;;;6.82;2.55;;;;;;;;;;4402759;32;20231;-58
2022/06/27 11:36:40;;;;;;;6.78;2.28;;;;;;;;;;4402487;32;20692;-59
2022/06/27 11:39:06;;;;;;;9.18;2.12;;;;;;;;;;4402464;32;20324;-59
2022/06/27 11:41:37;;;;;;;4.12;1.90;;;;;;;;;;4401218;32;20297;-59
2022/06/27 11:44:12;;;;;;;5.05;2.30;;;;;;;;;;4402419;32;20542;-59
2022/06/27 11:46:45;;;;;;;2.58;1.62;;;;;;;;;;4396253;32;20212;-59
2022/06/27 11:49:16;;;;;;;3.00;2.20;;;;;;;;;;4389842;32;20325;-59
2022/06/27 11:51:47;;;;;;;2.17;1.83;;;;;;;;;;4401378;32;20416;-59
2022/06/27 11:54:15;;;;;;;4.57;1.87;;;;;;;;;;4398157;32;20283;-59
2022/06/27 11:56:49;;;;;;;2.42;1.50;;;;;;;;;;4390322;32;20420;-59
2022/06/27 11:59:17;;;;;;;7.22;2.50;;;;;;;;;;4401957;32;20287;-59
2022/06/27 12:01:53;;;;;;;4.30;1.87;;;;;;;;;;4402106;32;20256;-59
2022/06/27 12:04:21;;;;;;;3.10;1.75;;;;;;;;;;4402416;32;20735;-60
2022/06/27 12:06:47;;;;;;;2.33;2.12;;;;;;;;;;4402004;32;20225;-59
2022/06/27 12:09:13;;;;;;;2.20;1.60;;;;;;;;;;4401963;32;20205;-59
2022/06/27 12:12:21;;;;;;;2.83;1.77;;;;;;;;;;4401729;32;20558;-58
2022/06/27 12:14:49;;;;;;;3.55;1.75;;;;;;;;;;4369698;32;20222;-59
2022/06/27 12:17:15;;;;;;;3.05;1.90;;;;;;;;;;4397755;32;20259;-59
2022/06/27 12:19:41;;;;;;;3.25;1.77;;;;;;;;;;4402240;32;20637;-59
2022/06/27 12:22:08;;;;;;;2.10;1.60;;;;;;;;;;4401717;32;20258;-59
2022/06/27 12:24:33;;;;;;;11.02;2.30;;;;;;;;;;4402033;32;20302;-58
2022/06/27 12:26:59;;;;;;;4.78;2.28;;;;;;;;;;4404469;32;20217;-59
2022/06/27 12:29:24;;;;;;;1.77;1.62;;;;;;;;;;4404758;32;20516;-58
2022/06/27 12:31:50;;;;;;;3.47;1.80;;;;;;;;;;4404752;32;20217;-58
2022/06/27 12:34:15;;;;;;;3.50;2.00;;;;;;;;;;4404406;32;20213;-58
2022/06/27 12:36:41;;;;;;;3.60;1.75;;;;;;;;;;4404738;32;20284;-59
2022/06/27 12:39:07;;;;;;;2.78;2.10;;;;;;;;;;4403640;32;20569;-59
2022/06/27 12:41:34;;;;;;;4.50;1.85;;;;;;;;;;4402049;32;20214;-58
2022/06/27 12:44:00;;;;;;;3.75;2.62;;;;;;;;;;4398356;32;20205;-58
2022/06/27 12:46:26;;;;;;;3.30;1.70;;;;;;;;;;4404895;32;20302;-58
2022/06/27 12:48:53;;;;;;;3.17;2.03;;;;;;;;;;4404863;32;20317;-58
2022/06/27 12:51:19;;;;;;;4.07;2.37;;;;;;;;;;4404315;32;20265;-59
2022/06/27 12:53:45;;;;;;;2.10;1.52;;;;;;;;;;4402344;32;20613;-58
2022/06/27 12:56:11;;;;;;;2.97;1.77;;;;;;;;;;4389415;32;20237;-59
2022/06/27 12:58:36;;;;;;;2.35;1.90;;;;;;;;;;4388224;32;20275;-58
2022/06/27 13:01:02;;;;;;;2.60;2.00;;;;;;;;;;4389453;32;20273;-59
2022/06/27 13:03:28;;;;;;;4.78;1.75;;;;;;;;;;4389696;32;20209;-58
2022/06/27 13:05:53;;;;;;;2.40;1.58;;;;;;;;;;4388863;32;20695;-59
2022/06/27 13:08:19;;;;;;;6.25;1.87;;;;;;;;;;4402990;32;20225;-59
2022/06/27 13:10:44;;;;;;;6.37;1.62;;;;;;;;;;4404321;32;20228;-58
2022/06/27 13:13:10;;;;;;;2.70;1.67;;;;;;;;;;4404154;32;20249;-58
2022/06/27 13:15:36;;;;;;;2.85;1.77;;;;;;;;;;4404781;32;20239;-58
2022/06/27 13:18:06;;;;;;;5.22;1.60;;;;;;;;;;4404778;32;20284;-58
2022/06/27 13:20:32;;;;;;;4.35;1.60;;;;;;;;;;4404267;32;20232;-58
2022/06/27 13:22:58;;;;;;;2.80;2.12;;;;;;;;;;4404271;32;20324;-58
2022/06/27 13:25:23;;;;;;;2.00;1.75;;;;;;;;;;4403791;32;20213;-58
2022/06/27 13:27:49;;;;;;;2.67;1.95;;;;;;;;;;4404322;32;20244;-58
2022/06/27 13:30:15;;;;;;;4.55;1.67;;;;;;;;;;4403632;32;20569;-58
2022/06/27 13:32:40;;;;;;;2.22;1.37;;;;;;;;;;4403124;32;20303;-58
2022/06/27 13:35:07;;;;;;;1.85;1.25;;;;;;;;;;4401000;32;20290;-58
2022/06/27 13:37:33;;;;;;;1.87;1.70;;;;;;;;;;4401370;32;20734;-59
2022/06/27 13:39:58;;;;;;;3.60;1.50;;;;;;;;;;4401991;32;20246;-58
2022/06/27 13:42:24;;;;;;;3.35;1.80;;;;;;;;;;4402502;32;20228;-58
2022/06/27 13:44:49;;;;;;;3.12;2.10;;;;;;;;;;4402278;32;20278;-58
2022/06/27 13:47:15;;;;;;;5.18;2.00;;;;;;;;;;4402617;32;20218;-58
2022/06/27 13:49:41;;;;;;;5.25;1.60;;;;;;;;;;4403923;32;20210;-59
2022/06/27 13:52:06;;;;;;;5.60;1.90;;;;;;;;;;4403442;32;20247;-58
2022/06/27 13:54:32;;;;;;;7.87;2.17;;;;;;;;;;4403693;32;20605;-58
2022/06/27 13:56:58;;;;;;;5.55;2.37;;;;;;;;;;4403445;32;20294;-58
2022/06/27 13:59:24;;;;;;;6.00;1.83;;;;;;;;;;4403460;32;20256;-59
2022/06/27 14:01:49;;;;;;;4.40;1.83;;;;;;;;;;4403701;32;20221;-59
2022/06/27 14:04:15;;;;;;;2.95;1.92;;;;;;;;;;4403678;32;20214;-58
2022/06/27 14:09:25;;;;;;;6.35;1.92;;;;;;;;;;4403599;32;20312;-59
2022/06/27 14:11:51;;;;;;;3.17;1.92;;;;;;;;;;4403485;32;20320;-60
2022/06/27 14:14:16;;;;;;;2.75;1.73;;;;;;;;;;4403258;32;20209;-58
2022/06/27 14:16:42;;;;;;;7.03;2.08;;;;;;;;;;4403465;32;20218;-59
2022/06/27 14:19:09;;;;;;;5.07;2.17;;;;;;;;;;4403043;32;20622;-59
2022/06/27 14:21:36;;;;;;;5.55;2.35;;;;;;;;;;4402730;32;20549;-59
2022/06/27 14:24:01;;;;;;;3.05;1.85;;;;;;;;;;4403143;32;20213;-59
2022/06/27 14:26:27;;;;;;;3.20;1.67;;;;;;;;;;4403348;32;20612;-59
2022/06/27 14:28:52;;;;;;;7.18;2.10;;;;;;;;;;4403391;32;20241;-59
2022/06/27 14:31:18;;;;;;;2.30;1.80;;;;;;;;;;4403297;32;20249;-58
2022/06/27 14:33:43;;;;;;;3.70;2.40;;;;;;;;;;4402684;32;20201;-58
2022/06/27 14:36:09;;;;;;;2.90;2.35;;;;;;;;;;4402549;32;21140;-59
2022/06/27 14:38:36;;;;;;;3.50;2.25;;;;;;;;;;4402735;32;20275;-57
2022/06/27 14:41:04;;;;;;;7.62;2.22;;;;;;;;;;4402653;32;20278;-58
2022/06/27 14:43:29;;;;;;;5.82;2.15;;;;;;;;;;4403087;32;20274;-58
2022/06/27 14:45:55;;;;;;;2.50;2.30;;;;;;;;;;4403249;32;20530;-58
2022/06/27 14:48:20;;;;;;;2.00;1.80;;;;;;;;;;4402554;32;20205;-59
2022/06/27 14:50:46;;;;;;;2.53;1.98;;;;;;;;;;4402534;32;20266;-59
2022/06/27 14:53:11;;;;;;;7.20;2.10;;;;;;;;;;4402552;32;20384;-59
2022/06/27 14:55:37;;;;;;;4.18;2.33;;;;;;;;;;4399015;32;20267;-59
2022/06/27 14:58:02;;;;;;;7.80;2.47;;;;;;;;;;4387295;32;20222;-58
2022/06/27 15:00:28;;;;;;;2.47;2.22;;;;;;;;;;4387688;32;20598;-58